Time;durP1;ratioP1;P1;durP2;ratioP2;P2;SDS_P1;SDS_P2;PMS_P1;PMS_P2;Temp;Humidity;BMP_temperature;BMP_pressure;BME280_temperature;BME280_humidity;BME280_pressure;Samples;Min_cycle;Max_cycle;Signal;HPM_P1;HPM_P2
2023/05/22 00:00:14;;;;;;;10.50;4.00;;;;;;;16.15;46.85;101109.01;111113;1212;97650;-63
2023/05/22 00:02:42;;;;;;;9.90;3.70;;;;;;;16.12;47.03;101104.11;110887;1210;138707;-64
2023/05/22 00:05:12;;;;;;;8.50;4.40;;;;;;;16.08;47.03;101107.21;111120;1211;97607;-64
2023/05/22 00:07:38;;;;;;;7.60;3.90;;;;;;;16.06;47.13;101108.98;111109;1209;112079;-64
2023/05/22 00:10:05;;;;;;;12.70;4.50;;;;;;;16.02;47.21;101104.14;111046;1212;138007;-64
2023/05/22 00:12:30;;;;;;;7.60;4.10;;;;;;;15.99;47.27;101104.00;111130;1210;97598;-63
2023/05/22 00:14:55;;;;;;;6.90;3.60;;;;;;;15.96;47.37;101101.84;110955;1210;138250;-64
2023/05/22 00:17:22;;;;;;;6.10;3.80;;;;;;;15.94;47.43;101099.81;111135;1209;97633;-63
2023/05/22 00:19:48;;;;;;;7.60;4.30;;;;;;;15.90;47.49;101097.48;111157;1212;97626;-63
2023/05/22 00:22:13;;;;;;;6.90;4.40;;;;;;;15.86;47.70;101099.31;110989;1209;138232;-63
2023/05/22 00:24:38;;;;;;;7.70;3.80;;;;;;;15.83;47.70;101098.22;111035;1209;97876;-63
2023/05/22 00:27:04;;;;;;;9.20;4.90;;;;;;;15.80;47.95;101098.58;110995;1212;138442;-63
2023/05/22 00:29:30;;;;;;;7.30;4.20;;;;;;;15.79;48.00;101099.21;111048;1208;107896;-63
2023/05/22 00:31:55;;;;;;;6.20;4.10;;;;;;;15.76;48.11;101098.81;111059;1214;97739;-63
2023/05/22 00:34:20;;;;;;;7.40;3.50;;;;;;;15.74;48.16;101099.51;111030;1212;138365;-63
2023/05/22 00:36:45;;;;;;;9.50;4.80;;;;;;;15.71;48.23;101096.63;111080;1209;97690;-63
2023/05/22 00:39:10;;;;;;;8.80;4.60;;;;;;;15.67;48.43;101097.38;111073;1209;138386;-63
2023/05/22 00:41:37;;;;;;;10.80;4.80;;;;;;;15.64;48.35;101091.81;111138;1212;97625;-64
2023/05/22 00:44:03;;;;;;;10.90;4.20;;;;;;;15.60;48.66;101091.66;111038;1210;98038;-63
2023/05/22 00:46:28;;;;;;;8.90;4.00;;;;;;;15.58;48.65;101087.66;111006;1209;138231;-63
2023/05/22 00:48:53;;;;;;;8.80;4.30;;;;;;;15.56;48.72;101089.55;111068;1212;97581;-63
2023/05/22 00:51:20;;;;;;;11.90;5.30;;;;;;;15.54;48.79;101087.85;111023;1212;138373;-64
2023/05/22 00:53:46;;;;;;;10.40;4.10;;;;;;;15.51;48.91;101086.92;110934;1212;97576;-64
2023/05/22 00:56:14;;;;;;;9.90;4.10;;;;;;;15.49;49.02;101089.23;111025;1212;139971;-63
2023/05/22 00:58:40;;;;;;;7.90;4.10;;;;;;;15.46;49.20;101091.38;111176;1210;97606;-63
2023/05/22 01:01:08;;;;;;;6.10;4.20;;;;;;;15.44;49.23;101085.20;111189;1212;97889;-64
2023/05/22 01:03:36;;;;;;;8.70;4.00;;;;;;;15.42;49.44;101085.51;111053;1208;137717;-63
2023/05/22 01:06:02;;;;;;;8.50;4.10;;;;;;;15.39;49.41;101086.70;111116;1209;100123;-63
2023/05/22 01:08:28;;;;;;;7.70;4.00;;;;;;;15.37;49.51;101084.69;110988;1212;138550;-63
2023/05/22 01:10:59;;;;;;;11.40;4.30;;;;;;;15.36;49.67;101081.33;111204;1212;96088;-63
2023/05/22 01:13:34;;;;;;;10.60;4.20;;;;;;;15.34;49.74;101081.45;111159;1212;111758;-63
2023/05/22 01:16:20;;;;;;;8.00;4.20;;;;;;;15.32;49.81;101085.87;111026;1209;138540;-63
2023/05/22 01:18:55;;;;;;;9.30;4.50;;;;;;;15.31;49.95;101080.88;111112;1209;107984;-63
2023/05/22 01:21:33;;;;;;;7.40;4.20;;;;;;;15.30;49.99;101082.19;111005;1210;138726;-63
2023/05/22 01:24:26;;;;;;;8.50;4.10;;;;;;;15.29;50.26;101083.52;111096;1212;97690;-63
2023/05/22 01:27:16;;;;;;;7.20;4.30;;;;;;;15.27;50.25;101087.39;111010;1212;139497;-63
2023/05/22 01:30:03;;;;;;;8.80;4.00;;;;;;;15.25;50.45;101086.59;111134;1209;99100;-63
2023/05/22 01:32:30;;;;;;;9.10;3.80;;;;;;;15.23;50.48;101085.65;110989;1212;137754;-63
2023/05/22 01:35:00;;;;;;;9.90;4.60;;;;;;;15.22;50.57;101084.78;111028;1212;97776;-63
2023/05/22 01:37:26;;;;;;;5.40;4.00;;;;;;;15.22;50.60;101081.21;111037;1210;97653;-62
2023/05/22 01:39:53;;;;;;;8.40;3.90;;;;;;;15.20;50.74;101086.35;111006;1210;138225;-63
2023/05/22 01:42:19;;;;;;;7.60;4.40;;;;;;;15.19;50.80;101084.44;111072;1209;97588;-63
2023/05/22 01:44:44;;;;;;;8.40;4.30;;;;;;;15.17;50.89;101084.14;110965;1212;138422;-63
2023/05/22 01:47:10;;;;;;;9.60;4.50;;;;;;;15.17;51.03;101080.60;111172;1212;97582;-63
2023/05/22 01:49:36;;;;;;;11.40;4.70;;;;;;;15.16;51.08;101079.58;111179;1210;97700;-63
2023/05/22 01:52:21;;;;;;;9.70;4.10;;;;;;;15.14;51.12;101078.02;111070;1210;137822;-63
2023/05/22 01:55:12;;;;;;;7.50;4.20;;;;;;;15.14;51.20;101079.48;111014;1212;97652;-63
2023/05/22 01:57:53;;;;;;;11.00;3.90;;;;;;;15.15;51.30;101080.33;110994;1209;137683;-63
2023/05/22 02:00:21;;;;;;;8.80;4.10;;;;;;;15.16;51.36;101079.20;111114;1212;111374;-63
2023/05/22 02:02:50;;;;;;;8.70;4.40;;;;;;;15.16;51.30;101078.09;110975;1212;138757;-63
2023/05/22 02:05:17;;;;;;;8.50;4.20;;;;;;;15.16;51.42;101078.80;111109;1210;107817;-63
2023/05/22 02:07:44;;;;;;;8.60;4.40;;;;;;;15.17;51.41;101076.98;111070;1221;97676;-63
2023/05/22 02:10:11;;;;;;;8.00;4.30;;;;;;;15.16;51.52;101075.02;110975;1209;139231;-63
2023/05/22 02:12:37;;;;;;;10.40;4.60;;;;;;;15.16;51.57;101074.85;111038;1212;97684;-63
2023/05/22 02:15:04;;;;;;;7.90;3.60;;;;;;;15.16;51.59;101071.98;111070;1209;138033;-63
2023/05/22 02:17:29;;;;;;;8.80;4.10;;;;;;;15.16;51.70;101069.64;111109;1212;97666;-63
2023/05/22 02:19:54;;;;;;;7.60;3.70;;;;;;;15.17;51.72;101069.60;111053;1210;95436;-63
2023/05/22 02:22:20;;;;;;;8.50;4.40;;;;;;;15.16;51.82;101065.16;110941;1212;138718;-63
2023/05/22 02:24:47;;;;;;;10.60;4.40;;;;;;;15.15;51.86;101063.60;111018;1210;95962;-63
2023/05/22 02:27:12;;;;;;;9.30;3.60;;;;;;;15.15;51.87;101066.65;111098;1210;138357;-63
2023/05/22 02:29:38;;;;;;;8.10;3.90;;;;;;;15.15;51.98;101067.92;111083;1212;95154;-63
2023/05/22 02:32:04;;;;;;;11.10;4.60;;;;;;;15.14;52.04;101067.60;111210;1209;100356;-63
2023/05/22 02:34:33;;;;;;;6.00;3.50;;;;;;;15.13;52.04;101069.31;110969;1210;139948;-64
2023/05/22 02:37:02;;;;;;;7.00;4.20;;;;;;;15.12;52.09;101068.98;111088;1212;97684;-63
2023/05/22 02:39:27;;;;;;;9.50;3.70;;;;;;;15.10;52.28;101070.89;111094;1208;138785;-63
2023/05/22 02:41:53;;;;;;;6.10;3.60;;;;;;;15.08;52.12;101069.35;111044;1208;98186;-63
2023/05/22 02:44:18;;;;;;;8.10;3.90;;;;;;;15.07;52.18;101070.48;111033;1212;137900;-63
2023/05/22 02:46:43;;;;;;;7.00;3.70;;;;;;;15.07;52.23;101072.48;111136;1209;97590;-63
2023/05/22 02:49:08;;;;;;;7.00;4.10;;;;;;;15.07;52.30;101067.85;111178;1212;98045;-63
2023/05/22 02:51:34;;;;;;;10.30;4.40;;;;;;;15.05;52.36;101069.89;110997;1212;138173;-63
2023/05/22 02:53:59;;;;;;;10.00;4.30;;;;;;;15.04;52.29;101065.28;111039;1210;97683;-63
2023/05/22 02:56:27;;;;;;;8.00;3.80;;;;;;;15.02;52.48;101062.52;110955;1212;140402;-63
2023/05/22 02:58:53;;;;;;;6.40;4.20;;;;;;;15.01;52.51;101059.52;111200;1209;111667;-63
2023/05/22 03:01:18;;;;;;;8.20;4.30;;;;;;;15.01;52.51;101058.82;111003;1209;99164;-63
2023/05/22 03:03:43;;;;;;;5.30;3.90;;;;;;;15.00;52.52;101056.36;110965;1212;139409;-63
2023/05/22 03:06:09;;;;;;;9.10;5.20;;;;;;;14.98;52.65;101053.59;111122;1210;97635;-63
2023/05/22 03:08:37;;;;;;;10.00;4.70;;;;;;;14.97;52.52;101051.13;111021;1212;139005;-65
2023/05/22 03:11:02;;;;;;;16.90;5.70;;;;;;;14.93;52.73;101050.23;111020;1208;108346;-63
2023/05/22 03:13:27;;;;;;;7.60;4.90;;;;;;;14.89;52.78;101050.10;111049;1210;97656;-63
2023/05/22 03:15:53;;;;;;;7.80;4.70;;;;;;;14.85;52.84;101054.08;110988;1212;138360;-63
2023/05/22 03:18:18;;;;;;;15.00;5.40;;;;;;;14.79;53.03;101056.04;111055;1209;97580;-63
2023/05/22 03:20:43;;;;;;;10.50;4.90;;;;;;;14.70;53.28;101057.08;110958;1209;138225;-63
2023/05/22 03:23:10;;;;;;;9.20;5.30;;;;;;;14.63;53.30;101055.83;111104;1209;97609;-65
2023/05/22 03:25:35;;;;;;;15.90;4.70;;;;;;;14.54;53.46;101057.71;111083;1209;97744;-63
2023/05/22 03:28:01;;;;;;;9.80;4.30;;;;;;;14.47;53.68;101056.15;111010;1212;138562;-63
2023/05/22 03:30:26;;;;;;;9.50;5.00;;;;;;;14.40;53.78;101057.23;111040;1212;97773;-63
2023/05/22 03:32:52;;;;;;;9.70;4.80;;;;;;;14.33;53.92;101058.48;110943;1210;140069;-63
2023/05/22 03:35:18;;;;;;;11.50;5.40;;;;;;;14.29;54.03;101059.20;110984;1209;98806;-63
2023/05/22 03:37:44;;;;;;;11.80;4.90;;;;;;;14.24;54.26;101059.48;111005;1208;108245;-63
2023/05/22 03:40:10;;;;;;;14.10;5.00;;;;;;;14.22;54.43;101059.05;110811;1208;139233;-63
2023/05/22 03:42:36;;;;;;;7.60;4.40;;;;;;;14.20;54.46;101065.80;110883;1215;97644;-63
2023/05/22 03:45:01;;;;;;;8.10;4.70;;;;;;;14.18;54.53;101062.69;110838;1210;138240;-63
2023/05/22 03:47:26;;;;;;;8.90;4.50;;;;;;;14.15;54.71;101060.34;110880;1212;97689;-64
2023/05/22 03:49:51;;;;;;;12.60;5.30;;;;;;;14.13;54.84;101064.75;110944;1209;98920;-61
2023/05/22 03:52:17;;;;;;;10.20;4.80;;;;;;;14.09;54.87;101062.40;110720;1209;138553;-65
2023/05/22 03:54:42;;;;;;;8.70;4.60;;;;;;;14.09;55.09;101064.21;110924;1212;97623;-63
2023/05/22 03:57:07;;;;;;;10.40;4.90;;;;;;;14.09;55.17;101065.27;110691;1209;138087;-63
2023/05/22 03:59:32;;;;;;;8.60;4.70;;;;;;;14.12;55.26;101064.42;110920;1210;97669;-64
2023/05/22 04:01:59;;;;;;;12.30;4.90;;;;;;;14.14;55.29;101062.35;110864;1209;99456;-63
2023/05/22 04:04:26;;;;;;;11.40;5.00;;;;;;;14.16;55.41;101062.78;110791;1212;138509;-63
2023/05/22 04:06:52;;;;;;;12.60;5.50;;;;;;;14.18;55.51;101063.00;110918;1209;97566;-63
2023/05/22 04:09:17;;;;;;;10.60;5.10;;;;;;;14.21;55.62;101058.91;110861;1210;139780;-63
2023/05/22 04:11:42;;;;;;;12.00;5.20;;;;;;;14.24;55.51;101056.64;111077;1212;97649;-63
2023/05/22 04:14:09;;;;;;;8.30;5.00;;;;;;;14.26;55.61;101051.48;111047;1210;97598;-63
2023/05/22 04:16:34;;;;;;;12.00;5.60;;;;;;;14.26;55.76;101051.27;111123;1209;97666;-63
2023/05/22 04:19:01;;;;;;;13.80;5.00;;;;;;;14.28;55.81;101051.15;111016;1209;97659;-63
2023/05/22 04:21:27;;;;;;;9.50;5.60;;;;;;;14.29;55.87;101052.92;110897;1209;137999;-63
2023/05/22 04:23:52;;;;;;;9.80;5.50;;;;;;;14.29;55.93;101054.16;110963;1212;97742;-63
2023/05/22 04:26:19;;;;;;;13.10;5.40;;;;;;;14.29;55.97;101052.02;110978;1209;139137;-63
2023/05/22 04:28:45;;;;;;;12.70;5.60;;;;;;;14.30;56.01;101048.92;111034;1209;111716;-63
2023/05/22 04:31:14;;;;;;;11.40;5.50;;;;;;;14.30;56.09;101052.86;111134;1209;97744;-63
2023/05/22 04:33:39;;;;;;;9.00;5.10;;;;;;;14.32;56.14;101049.58;110922;1210;138611;-63
2023/05/22 04:36:09;;;;;;;12.20;5.50;;;;;;;14.33;56.24;101046.08;111119;1212;97785;-63
2023/05/22 04:38:35;;;;;;;11.40;5.40;;;;;;;14.34;56.37;101045.11;110955;1210;138010;-63
2023/05/22 04:41:01;;;;;;;10.20;5.50;;;;;;;14.38;56.34;101048.35;110963;1212;97679;-63
2023/05/22 04:43:26;;;;;;;8.50;5.10;;;;;;;14.42;56.50;101046.14;111138;1212;96117;-63
2023/05/22 04:45:52;;;;;;;12.70;5.60;;;;;;;14.45;56.53;101048.86;110897;1210;138417;-63
2023/05/22 04:48:18;;;;;;;9.00;5.20;;;;;;;14.48;56.50;101051.05;111066;1210;97693;-63
2023/05/22 04:50:45;;;;;;;11.30;6.00;;;;;;;14.51;56.60;101053.41;110976;1210;138634;-63
2023/05/22 04:53:11;;;;;;;11.20;5.50;;;;;;;14.53;56.62;101053.28;110973;1210;108038;-63
2023/05/22 04:55:37;;;;;;;12.30;6.30;;;;;;;14.55;56.66;101053.55;111023;1212;97657;-63
2023/05/22 04:58:04;;;;;;;13.90;5.90;;;;;;;14.57;56.77;101049.86;111039;1208;138171;-63
2023/05/22 05:00:29;;;;;;;14.10;5.60;;;;;;;14.61;56.73;101048.39;111092;1212;99494;-63
2023/05/22 05:02:56;;;;;;;11.00;4.90;;;;;;;14.65;56.86;101045.66;110830;1210;139489;-63
2023/05/22 05:05:21;;;;;;;10.60;5.30;;;;;;;14.70;56.93;101048.25;111160;1209;97932;-63
2023/05/22 05:07:48;;;;;;;12.30;5.50;;;;;;;14.75;56.92;101047.83;111080;1212;97787;-63
2023/05/22 05:10:14;;;;;;;12.80;5.40;;;;;;;14.79;56.95;101046.52;110985;1210;138618;-63
2023/05/22 05:12:39;;;;;;;18.00;5.70;;;;;;;14.82;56.94;101046.85;111041;1212;97690;-63
2023/05/22 05:15:06;;;;;;;12.00;5.70;;;;;;;14.86;56.91;101045.41;110899;1212;137777;-63
2023/05/22 05:17:31;;;;;;;13.50;5.60;;;;;;;14.90;57.02;101047.53;111047;1212;111788;-63
2023/05/22 05:19:56;;;;;;;14.00;5.50;;;;;;;14.93;57.00;101049.14;111043;1209;97659;-63
2023/05/22 05:22:22;;;;;;;16.60;5.80;;;;;;;14.97;57.05;101053.08;111055;1212;138344;-63
2023/05/22 05:24:47;;;;;;;14.30;6.00;;;;;;;15.02;57.12;101053.16;111125;1212;97677;-63
2023/05/22 05:27:12;;;;;;;11.10;5.80;;;;;;;15.07;57.12;101055.19;111004;1212;138558;-63
2023/05/22 05:29:38;;;;;;;14.90;4.70;;;;;;;15.13;57.14;101051.81;111064;1212;97686;-63
2023/05/22 05:32:04;;;;;;;7.20;4.80;;;;;;;15.19;57.02;101051.30;111048;1209;97685;-63
2023/05/22 05:34:29;;;;;;;9.10;4.60;;;;;;;15.25;57.20;101052.92;111040;1212;138246;-65
2023/05/22 05:36:56;;;;;;;12.80;5.00;;;;;;;15.32;57.05;101051.31;111086;1209;97673;-63
2023/05/22 05:39:21;;;;;;;10.90;5.60;;;;;;;15.38;56.97;101055.25;110923;1209;140122;-63
2023/05/22 05:41:46;;;;;;;7.40;4.70;;;;;;;15.46;57.07;101056.09;111105;1212;97759;-63
2023/05/22 05:44:12;;;;;;;12.80;4.90;;;;;;;15.53;57.21;101060.72;110972;1209;137910;-63
2023/05/22 05:46:37;;;;;;;10.90;4.60;;;;;;;15.61;57.04;101064.21;111035;1212;97678;-64
2023/05/22 05:49:10;;;;;;;10.30;3.90;;;;;;;15.68;56.85;101059.82;111131;1208;99280;-63
2023/05/22 05:51:38;;;;;;;8.20;4.20;;;;;;;15.77;57.08;101058.08;110946;1209;138562;-63
2023/05/22 05:54:04;;;;;;;12.20;4.80;;;;;;;15.84;56.92;101058.91;111023;1210;111635;-63
2023/05/22 05:56:30;;;;;;;14.80;4.50;;;;;;;15.93;56.82;101059.99;110867;1212;139071;-63
2023/05/22 05:58:55;;;;;;;8.00;4.20;;;;;;;16.02;56.88;101059.84;111114;1212;97658;-63
2023/05/22 06:01:23;;;;;;;9.80;4.30;;;;;;;16.09;56.64;101055.23;111008;1212;97703;-63
2023/05/22 06:03:49;;;;;;;10.60;4.50;;;;;;;16.17;56.76;101051.67;110867;1212;139916;-63
2023/05/22 06:06:14;;;;;;;12.30;3.90;;;;;;;16.28;56.63;101051.43;111022;1209;97606;-63
2023/05/22 06:08:41;;;;;;;9.90;4.40;;;;;;;16.38;56.78;101045.93;110951;1212;140452;-65
2023/05/22 06:11:06;;;;;;;9.50;4.40;;;;;;;16.50;56.66;101039.07;111059;1209;97639;-63
2023/05/22 06:13:31;;;;;;;10.50;3.60;;;;;;;16.59;56.46;101040.84;111069;1213;97866;-64
2023/05/22 06:15:56;;;;;;;7.40;3.80;;;;;;;16.69;56.40;101040.42;110931;1209;138426;-63
2023/05/22 06:18:24;;;;;;;9.90;3.90;;;;;;;16.79;56.22;101039.78;111043;1209;97593;-63
2023/05/22 06:20:49;;;;;;;6.70;3.60;;;;;;;16.90;56.02;101033.48;110967;1209;139180;-63
2023/05/22 06:23:14;;;;;;;12.40;4.20;;;;;;;17.02;56.11;101032.89;111063;1212;97667;-63
2023/05/22 06:25:39;;;;;;;9.70;3.50;;;;;;;17.13;55.92;101031.86;111054;1212;97606;-63
2023/05/22 06:28:05;;;;;;;11.60;3.50;;;;;;;17.23;55.78;101031.73;110968;1212;138243;-63
2023/05/22 06:30:30;;;;;;;9.70;4.00;;;;;;;17.33;55.67;101032.91;111060;1212;103037;-63
2023/05/22 06:32:55;;;;;;;9.40;3.20;;;;;;;17.45;55.50;101034.98;110915;1209;137963;-64
2023/05/22 06:35:21;;;;;;;9.30;3.30;;;;;;;17.59;55.51;101032.27;111069;1212;97708;-64
2023/05/22 06:37:46;;;;;;;7.20;3.10;;;;;;;17.70;55.07;101036.61;111054;1208;97586;-64
2023/05/22 06:40:12;;;;;;;3.90;2.70;;;;;;;17.83;55.14;101037.17;110879;1212;138052;-64
2023/05/22 06:42:37;;;;;;;6.90;3.00;;;;;;;17.96;54.77;101037.02;111061;1212;99163;-63
2023/05/22 06:45:03;;;;;;;9.50;2.80;;;;;;;18.10;54.72;101035.17;110911;1208;137852;-64
2023/05/22 06:47:28;;;;;;;6.80;2.90;;;;;;;18.19;54.42;101031.42;111138;1212;97687;-64
2023/05/22 06:49:53;;;;;;;5.60;2.90;;;;;;;18.30;54.27;101037.17;111110;1212;97694;-64
2023/05/22 06:52:18;;;;;;;8.80;2.90;;;;;;;18.39;53.96;101035.47;111083;1212;138224;-64
2023/05/22 06:54:44;;;;;;;7.90;2.70;;;;;;;18.49;53.73;101028.02;111013;1212;98218;-64
2023/05/22 06:57:09;;;;;;;12.50;2.80;;;;;;;18.64;53.75;101027.77;110802;1209;138324;-64
2023/05/22 06:59:35;;;;;;;6.60;2.70;;;;;;;18.77;53.57;101025.38;111085;1212;97966;-64
2023/05/22 07:02:00;;;;;;;4.90;2.20;;;;;;;18.92;53.22;101028.67;111053;1212;97685;-64
2023/05/22 07:04:25;;;;;;;7.60;3.00;;;;;;;19.01;53.08;101024.40;110801;1208;138171;-64
2023/05/22 07:06:51;;;;;;;11.60;2.80;;;;;;;19.09;52.92;101021.77;110762;1212;97719;-64
2023/05/22 07:09:18;;;;;;;14.30;3.10;;;;;;;19.19;52.80;101026.12;110749;1209;138344;-65
2023/05/22 07:11:44;;;;;;;7.10;3.00;;;;;;;19.30;52.65;101024.59;110915;1212;97680;-64
2023/05/22 07:14:11;;;;;;;7.70;2.80;;;;;;;19.39;52.42;101025.34;110709;1212;137939;-63
2023/05/22 07:16:40;;;;;;;3.70;2.70;;;;;;;19.50;52.23;101027.83;110812;1209;97710;-64
2023/05/22 07:19:07;;;;;;;11.20;2.50;;;;;;;19.61;51.93;101031.01;110858;1212;99713;-64
2023/05/22 07:21:34;;;;;;;9.60;3.00;;;;;;;19.72;51.70;101031.95;110927;1212;138466;-65
2023/05/22 07:24:06;;;;;;;5.40;3.10;;;;;;;19.80;51.41;101029.38;111036;1208;97606;-64
2023/05/22 07:26:32;;;;;;;7.80;2.70;;;;;;;19.90;50.95;101029.55;110838;1209;137965;-64
2023/05/22 07:28:57;;;;;;;7.60;2.70;;;;;;;19.95;50.75;101031.67;110936;1208;101993;-65
2023/05/22 07:31:22;;;;;;;6.50;2.80;;;;;;;20.00;50.52;101026.75;110998;1210;97701;-64
2023/05/22 07:33:48;;;;;;;6.60;2.90;;;;;;;20.04;50.35;101026.25;110830;1209;138477;-64
2023/05/22 07:36:13;;;;;;;7.30;2.60;;;;;;;20.07;50.21;101022.00;111159;1210;98140;-64
2023/05/22 07:38:38;;;;;;;4.80;2.30;;;;;;;20.14;50.11;101024.97;110946;1224;138397;-64
2023/05/22 07:41:04;;;;;;;4.20;2.60;;;;;;;20.22;49.89;101026.73;110935;1209;97695;-66
2023/05/22 07:43:30;;;;;;;5.00;2.20;;;;;;;20.27;49.64;101026.50;110824;1209;98837;-64
2023/05/22 07:45:55;;;;;;;2.90;2.10;;;;;;;20.31;49.51;101026.48;110934;1208;139503;-64
2023/05/22 07:48:20;;;;;;;10.40;2.60;;;;;;;20.35;49.23;101025.63;110814;1212;97684;-64
2023/05/22 07:50:46;;;;;;;6.90;2.60;;;;;;;20.41;49.18;101027.39;110734;1210;140094;-64
2023/05/22 07:53:12;;;;;;;6.50;2.50;;;;;;;20.47;48.91;101022.42;110938;1212;97684;-64
2023/05/22 07:55:38;;;;;;;5.00;2.30;;;;;;;20.54;48.74;101023.45;111023;1212;97695;-64
2023/05/22 07:58:04;;;;;;;7.00;2.80;;;;;;;20.61;48.53;101022.35;110913;1212;138141;-65
2023/05/22 08:00:30;;;;;;;7.20;3.00;;;;;;;20.69;48.45;101022.67;111068;1209;97550;-64
2023/05/22 08:02:55;;;;;;;5.10;2.60;;;;;;;20.79;48.23;101023.84;110939;1212;138995;-64
2023/05/22 08:05:21;;;;;;;4.50;2.70;;;;;;;20.88;47.94;101022.35;111004;1212;99375;-64
2023/05/22 08:07:46;;;;;;;4.80;2.70;;;;;;;20.95;47.71;101021.05;111134;1212;97668;-63
2023/05/22 08:10:16;;;;;;;5.50;2.20;;;;;;;21.01;47.54;101017.80;110979;1208;138383;-63
2023/05/22 08:12:41;;;;;;;4.10;2.80;;;;;;;21.06;47.33;101016.32;110824;1209;97703;-64
2023/05/22 08:15:07;;;;;;;7.50;2.70;;;;;;;21.11;47.20;101014.71;110716;1212;138856;-64
2023/05/22 08:17:33;;;;;;;5.60;2.70;;;;;;;21.18;46.99;101012.33;111481;1209;97620;-64
2023/05/22 08:19:58;;;;;;;3.30;2.60;;;;;;;21.23;46.91;101008.95;110820;1212;97626;-64
2023/05/22 08:22:23;;;;;;;4.40;2.80;;;;;;;21.30;46.79;101007.31;110803;1209;138328;-64
2023/05/22 08:24:48;;;;;;;5.20;2.10;;;;;;;21.37;46.62;101012.88;110926;1209;97714;-64
2023/05/22 08:27:13;;;;;;;5.70;2.30;;;;;;;21.47;46.37;101012.23;110870;1209;137782;-64
2023/05/22 08:29:39;;;;;;;6.30;2.30;;;;;;;21.58;45.97;101011.31;111076;1208;97742;-64
2023/05/22 08:32:05;;;;;;;6.20;2.10;;;;;;;21.63;45.70;101015.61;110991;1212;97711;-64
2023/05/22 08:34:31;;;;;;;2.90;2.20;;;;;;;21.66;45.30;101011.39;110996;1212;137932;-64
2023/05/22 08:36:57;;;;;;;2.00;1.80;;;;;;;21.72;44.96;101008.70;110960;1212;102963;-63
2023/05/22 08:39:23;;;;;;;4.00;2.30;;;;;;;21.77;44.58;101009.40;110980;1208;139487;-63
2023/05/22 08:41:49;;;;;;;2.30;1.80;;;;;;;21.81;44.41;101005.45;111054;1212;97808;-63
2023/05/22 08:44:15;;;;;;;3.00;2.00;;;;;;;21.88;44.11;101006.77;110977;1212;138460;-63
2023/05/22 08:46:40;;;;;;;2.70;1.70;;;;;;;21.94;43.80;101003.87;111051;1208;97621;-63
2023/05/22 08:49:08;;;;;;;7.20;2.20;;;;;;;22.00;43.56;101005.23;111170;1208;97658;-61
2023/05/22 08:51:38;;;;;;;6.60;2.10;;;;;;;22.07;43.31;101002.33;110993;1209;137803;-61
2023/05/22 08:54:08;;;;;;;5.80;2.40;;;;;;;22.14;43.13;101002.59;111094;1209;99076;-63
2023/05/22 08:56:39;;;;;;;6.50;2.50;;;;;;;22.21;43.08;101009.03;110988;1212;138031;-61
2023/05/22 08:59:05;;;;;;;5.00;1.80;;;;;;;22.28;42.95;101002.95;111147;1209;97687;-61
2023/05/22 09:01:31;;;;;;;3.50;2.00;;;;;;;22.32;42.73;100999.39;110962;1208;98141;-61
2023/05/22 09:04:01;;;;;;;3.60;2.20;;;;;;;22.32;42.37;100998.27;110916;1212;139232;-62
2023/05/22 09:06:30;;;;;;;4.10;2.60;;;;;;;22.34;42.37;100992.80;111109;1209;97579;-61
2023/05/22 09:08:56;;;;;;;3.90;2.00;;;;;;;22.40;42.34;100990.33;110913;1212;139821;-60
2023/05/22 09:11:22;;;;;;;3.30;2.20;;;;;;;22.44;42.17;100988.35;111010;1212;99017;-61
2023/05/22 09:13:50;;;;;;;4.20;2.20;;;;;;;22.48;41.96;100981.92;110936;1208;97716;-61
2023/05/22 09:16:15;;;;;;;4.10;2.40;;;;;;;22.54;41.75;100979.09;111002;1212;139267;-61
2023/05/22 09:18:41;;;;;;;4.80;2.20;;;;;;;22.52;41.37;100981.65;111179;1208;97544;-61
2023/05/22 09:21:07;;;;;;;4.00;2.40;;;;;;;22.56;41.19;100979.39;110940;1212;137617;-62
2023/05/22 09:23:33;;;;;;;6.60;2.70;;;;;;;22.64;40.99;100976.15;111073;1208;97579;-61
2023/05/22 09:25:59;;;;;;;8.30;2.70;;;;;;;22.71;40.79;100970.09;111173;1208;103312;-62
2023/05/22 09:28:26;;;;;;;5.20;2.30;;;;;;;22.73;40.85;100968.23;110952;1212;137605;-61
2023/05/22 09:30:52;;;;;;;6.50;2.30;;;;;;;22.77;40.45;100961.71;111128;1209;98005;-62
2023/05/22 09:33:19;;;;;;;5.80;2.20;;;;;;;22.81;40.48;100961.78;110911;1209;137623;-62
2023/05/22 09:35:51;;;;;;;3.60;2.30;;;;;;;22.88;40.50;100966.05;111076;1208;95372;-62
2023/05/22 09:38:16;;;;;;;4.60;2.30;;;;;;;22.94;40.34;100965.61;110805;1209;137838;-62
2023/05/22 09:40:42;;;;;;;6.30;2.70;;;;;;;22.98;40.21;100965.48;110917;1212;97620;-62
2023/05/22 09:43:10;;;;;;;2.80;2.40;;;;;;;22.96;40.29;100964.96;111063;1212;97624;-62
2023/05/22 09:45:37;;;;;;;9.20;2.30;;;;;;;22.93;40.25;100965.36;110956;1212;138371;-62
2023/05/22 09:48:04;;;;;;;3.70;2.80;;;;;;;22.94;40.09;100960.90;111040;1208;97543;-62
2023/05/22 09:50:30;;;;;;;4.60;2.20;;;;;;;22.89;40.08;100957.34;110914;1211;138634;-62
2023/05/22 09:52:56;;;;;;;4.10;2.20;;;;;;;22.87;39.95;100956.44;110907;1208;97598;-62
2023/05/22 09:55:22;;;;;;;4.30;2.60;;;;;;;22.93;40.12;100952.27;111192;1212;97747;-61
2023/05/22 09:57:51;;;;;;;6.80;2.40;;;;;;;23.03;40.06;100952.87;111039;1208;137814;-61
2023/05/22 10:00:18;;;;;;;3.70;2.50;;;;;;;23.13;39.98;100955.74;111102;1208;96455;-62
2023/05/22 10:02:45;;;;;;;7.00;2.40;;;;;;;23.18;39.51;100951.65;110991;1208;139821;-63
2023/05/22 10:05:21;;;;;;;5.40;2.30;;;;;;;23.18;39.46;100946.17;110985;1212;97623;-62
2023/05/22 10:07:49;;;;;;;7.00;2.30;;;;;;;23.23;39.47;100946.59;110941;1208;97601;-62
2023/05/22 10:10:20;;;;;;;5.00;2.40;;;;;;;23.35;39.39;100940.05;110890;1207;137644;-62
2023/05/22 10:12:56;;;;;;;4.20;2.60;;;;;;;23.39;39.09;100938.95;110997;1208;97552;-61
2023/05/22 10:15:22;;;;;;;2.60;2.10;;;;;;;23.34;38.34;100935.59;110953;1208;137614;-62
2023/05/22 10:17:48;;;;;;;10.70;3.00;;;;;;;23.32;38.20;100930.42;110961;1208;99231;-62
2023/05/22 10:20:14;;;;;;;3.00;2.10;;;;;;;23.41;38.12;100934.54;111008;1212;138485;-61
2023/05/22 10:22:40;;;;;;;6.80;2.40;;;;;;;23.49;37.95;100935.02;110996;1208;95379;-61
2023/05/22 10:25:07;;;;;;;2.40;2.20;;;;;;;23.58;37.88;100934.98;110731;1212;96879;-62
2023/05/22 10:27:32;;;;;;;5.10;2.30;;;;;;;23.68;37.88;100928.59;110726;1209;138655;-63
2023/05/22 10:30:11;;;;;;;7.90;2.40;;;;;;;23.84;37.73;100926.48;110785;1212;105194;-65
2023/05/22 10:32:59;;;;;;;9.40;2.20;;;;;;;24.04;37.71;100919.09;110716;1212;138675;-61
2023/05/22 10:35:55;;;;;;;5.80;2.50;;;;;;;24.23;37.28;100912.86;110794;1208;99696;-60
2023/05/22 10:38:48;;;;;;;6.10;3.20;;;;;;;24.38;36.98;100911.21;110674;1212;138455;-61
2023/05/22 10:41:14;;;;;;;3.70;2.30;;;;;;;24.64;37.16;100908.70;110838;1210;99694;-60
2023/05/22 10:43:43;;;;;;;7.30;2.10;;;;;;;24.81;37.00;100904.61;110898;1212;98428;-61
2023/05/22 10:46:11;;;;;;;2.50;1.80;;;;;;;24.82;36.71;100900.71;110667;1212;138406;-61
2023/05/22 10:48:38;;;;;;;3.70;2.20;;;;;;;24.80;36.59;100895.45;110803;1208;107796;-62
2023/05/22 10:51:03;;;;;;;6.90;2.50;;;;;;;24.79;36.32;100896.05;110778;1208;138831;-61
2023/05/22 10:53:33;;;;;;;2.70;2.00;;;;;;;24.83;36.14;100894.97;110832;1212;98261;-61
2023/05/22 10:56:07;;;;;;;3.40;1.90;;;;;;;24.86;36.18;100889.08;110806;1208;97597;-61
2023/05/22 10:58:36;;;;;;;5.60;2.70;;;;;;;24.81;35.90;100889.05;110729;1208;137569;-61
2023/05/22 11:01:14;;;;;;;4.80;2.10;;;;;;;24.71;35.73;100888.48;110871;1208;98784;-61
2023/05/22 11:03:54;;;;;;;5.70;2.10;;;;;;;24.63;35.73;100885.42;110599;1209;137761;-61
2023/05/22 11:06:30;;;;;;;3.60;1.60;;;;;;;24.59;35.69;100884.11;110841;1212;97700;-61
2023/05/22 11:08:59;;;;;;;5.60;2.60;;;;;;;24.55;35.62;100883.41;110680;1212;138342;-61
2023/05/22 11:11:27;;;;;;;3.60;1.80;;;;;;;24.51;35.44;100879.07;110900;1208;98041;-62